| Date | Time | Temp. (oF) | Dew Point (oF) | Rel. Hum. (%) | Press. (in.) | Wind Dir. (deg.) | Wind Speed (mph) | Hourly Rainfall (i n.) |
|
|---|---|---|---|---|---|---|---|---|---|
| 1 | 04/20 | 24:00 | 42 | 33 | 72 | 30.05 | 630 | 0 | 0.00 |
| 2 | 04/19 | 23:00 | 43 | 32 | 67 | 30.05 | 630 | 0 | 0.00 |
| 3 | 04/19 | 22:00 | 46 | 33 | 61 | 30.05 | 630 | 0 | 0.00 |
| 4 | 04/19 | 21:00 | 49 | 33 | 56 | 30.06 | 630 | 0 | 0.00 |
| 5 | 04/19 | 20:00 | 52 | 35 | 53 | 30.01 | 630 | 0 | 0.00 |
| 6 | 04/19 | 19:00 | 54 | 34 | 48 | 30.00 | 630 | 0 | 0.00 |
| 7 | 04/19 | 18:00 | 57 | 32 | 39 | 30.01 | 630 | 0 | 0.00 |
| 8 | 04/19 | 17:00 | 59 | 33 | 38 | 30.02 | 630 | 0 | 0.00 |
| 9 | 04/19 | 16:00 | 59 | 34 | 40 | 30.02 | 630 | 0 | 0.00 |
| 10 | 04/19 | 15:00 | 57 | 37 | 48 | 30.05 | 630 | 0 | 0.00 |
| 11 | 04/19 | 14:00 | 57 | 36 | 46 | 30.06 | 630 | 0 | 0.00 |
| 12 | 04/19 | 13:00 | 54 | 37 | 53 | 30.11 | 630 | 0 | 0.00 |
| 13 | 04/19 | 12:00 | 53 | 37 | 56 | 30.13 | 630 | 0 | 0.00 |
| 14 | 04/19 | 11:00 | 51 | 38 | 62 | 30.14 | 630 | 0 | 0.00 |
| 15 | 04/19 | 10:00 | 49 | 38 | 67 | 30.12 | 630 | 0 | 0.00 |
| 16 | 04/19 | 09:00 | 45 | 38 | 77 | 30.12 | 630 | 0 | 0.00 |
| 17 | 04/19 | 08:00 | 38 | 33 | 83 | 30.08 | 630 | 0 | 0.00 |
| 18 | 04/19 | 07:00 | 35 | 29 | 81 | 30.06 | 630 | 0 | 0.00 |
| 19 | 04/19 | 06:00 | 36 | 30 | 80 | 30.05 | 630 | 0 | 0.00 |
| 20 | 04/19 | 05:00 | 37 | 30 | 77 | 30.05 | 630 | 0 | 0.00 |
| 21 | 04/19 | 04:00 | 38 | 30 | 74 | 30.07 | 630 | 0 | 0.00 |
| 22 | 04/19 | 03:00 | 40 | 30 | 70 | 30.08 | 630 | 0 | 0.00 |
| 23 | 04/19 | 02:00 | 42 | 31 | 67 | 30.10 | 630 | 0 | 0.00 |
| 24 | 04/19 | 01:00 | 43 | 32 | 66 | 30.12 | 630 | 0 | 0.00 |